sensor_id;sensor_type;location;lat;lon;timestamp;P1;durP1;ratioP1;P2;durP2;ratioP2
76202;SDS011;64985;46.364;17.008;2024-03-02T00:01:41;138.45;;;53.00;;
76202;SDS011;64985;46.364;17.008;2024-03-02T00:04:45;128.98;;;50.47;;
76202;SDS011;64985;46.364;17.008;2024-03-02T00:07:57;104.43;;;43.85;;
76202;SDS011;64985;46.364;17.008;2024-03-02T00:11:01;106.28;;;45.10;;
76202;SDS011;64985;46.364;17.008;2024-03-02T00:14:07;117.93;;;46.30;;
76202;SDS011;64985;46.364;17.008;2024-03-02T00:17:14;111.00;;;45.88;;
76202;SDS011;64985;46.364;17.008;2024-03-02T00:20:27;106.78;;;42.70;;
76202;SDS011;64985;46.364;17.008;2024-03-02T00:23:31;140.77;;;49.70;;
76202;SDS011;64985;46.364;17.008;2024-03-02T00:26:35;120.97;;;50.10;;
76202;SDS011;64985;46.364;17.008;2024-03-02T00:29:37;125.38;;;48.08;;
76202;SDS011;64985;46.364;17.008;2024-03-02T00:32:42;114.47;;;46.50;;
76202;SDS011;64985;46.364;17.008;2024-03-02T00:35:45;115.18;;;44.92;;
76202;SDS011;64985;46.364;17.008;2024-03-02T00:38:48;111.13;;;44.63;;
76202;SDS011;64985;46.364;17.008;2024-03-02T00:41:52;111.63;;;45.13;;
76202;SDS011;64985;46.364;17.008;2024-03-02T00:44:54;110.45;;;43.83;;
76202;SDS011;64985;46.364;17.008;2024-03-02T00:47:57;103.15;;;40.50;;
76202;SDS011;64985;46.364;17.008;2024-03-02T00:50:59;126.50;;;48.25;;
76202;SDS011;64985;46.364;17.008;2024-03-02T00:54:04;104.28;;;42.75;;
76202;SDS011;64985;46.364;17.008;2024-03-02T00:57:10;112.45;;;44.78;;
76202;SDS011;64985;46.364;17.008;2024-03-02T01:00:14;98.95;;;40.97;;
76202;SDS011;64985;46.364;17.008;2024-03-02T01:03:19;89.88;;;38.22;;
76202;SDS011;64985;46.364;17.008;2024-03-02T01:06:22;88.88;;;38.08;;
76202;SDS011;64985;46.364;17.008;2024-03-02T01:09:25;89.53;;;37.15;;
76202;SDS011;64985;46.364;17.008;2024-03-02T01:12:27;92.40;;;35.90;;
76202;SDS011;64985;46.364;17.008;2024-03-02T01:15:29;76.97;;;34.70;;
76202;SDS011;64985;46.364;17.008;2024-03-02T01:18:32;70.72;;;32.22;;
76202;SDS011;64985;46.364;17.008;2024-03-02T01:21:35;74.88;;;32.40;;
76202;SDS011;64985;46.364;17.008;2024-03-02T01:24:39;71.03;;;31.80;;
76202;SDS011;64985;46.364;17.008;2024-03-02T01:27:42;71.55;;;31.88;;
76202;SDS011;64985;46.364;17.008;2024-03-02T01:30:48;82.78;;;35.47;;
76202;SDS011;64985;46.364;17.008;2024-03-02T01:33:51;78.10;;;34.75;;
76202;SDS011;64985;46.364;17.008;2024-03-02T01:36:53;90.55;;;38.05;;
76202;SDS011;64985;46.364;17.008;2024-03-02T01:39:55;98.28;;;38.17;;
76202;SDS011;64985;46.364;17.008;2024-03-02T01:42:57;85.03;;;37.17;;
76202;SDS011;64985;46.364;17.008;2024-03-02T01:46:00;94.55;;;37.58;;
76202;SDS011;64985;46.364;17.008;2024-03-02T01:49:03;91.15;;;38.03;;
76202;SDS011;64985;46.364;17.008;2024-03-02T01:52:06;95.22;;;38.97;;
76202;SDS011;64985;46.364;17.008;2024-03-02T01:55:09;101.18;;;42.08;;
76202;SDS011;64985;46.364;17.008;2024-03-02T01:58:11;110.60;;;45.90;;
76202;SDS011;64985;46.364;17.008;2024-03-02T02:01:14;123.43;;;48.25;;
76202;SDS011;64985;46.364;17.008;2024-03-02T02:04:16;126.78;;;52.13;;
76202;SDS011;64985;46.364;17.008;2024-03-02T02:07:18;128.57;;;52.15;;
76202;SDS011;64985;46.364;17.008;2024-03-02T02:10:20;133.75;;;52.60;;
76202;SDS011;64985;46.364;17.008;2024-03-02T02:13:23;127.20;;;52.35;;
76202;SDS011;64985;46.364;17.008;2024-03-02T02:16:25;123.47;;;51.17;;
76202;SDS011;64985;46.364;17.008;2024-03-02T02:19:28;121.18;;;49.80;;
76202;SDS011;64985;46.364;17.008;2024-03-02T02:22:30;116.05;;;48.10;;
76202;SDS011;64985;46.364;17.008;2024-03-02T02:25:32;121.10;;;49.05;;
76202;SDS011;64985;46.364;17.008;2024-03-02T02:28:35;116.05;;;48.70;;
76202;SDS011;64985;46.364;17.008;2024-03-02T02:31:38;115.53;;;48.83;;
76202;SDS011;64985;46.364;17.008;2024-03-02T02:34:43;111.05;;;48.17;;
76202;SDS011;64985;46.364;17.008;2024-03-02T02:37:46;121.90;;;48.53;;
76202;SDS011;64985;46.364;17.008;2024-03-02T02:40:50;122.45;;;47.83;;
76202;SDS011;64985;46.364;17.008;2024-03-02T02:43:52;110.40;;;45.47;;
76202;SDS011;64985;46.364;17.008;2024-03-02T02:46:55;116.07;;;44.83;;
76202;SDS011;64985;46.364;17.008;2024-03-02T02:49:57;107.18;;;42.17;;
76202;SDS011;64985;46.364;17.008;2024-03-02T02:52:59;102.75;;;42.00;;
76202;SDS011;64985;46.364;17.008;2024-03-02T02:56:02;106.82;;;43.53;;
76202;SDS011;64985;46.364;17.008;2024-03-02T02:59:04;103.05;;;43.03;;
76202;SDS011;64985;46.364;17.008;2024-03-02T03:02:06;111.35;;;43.15;;
76202;SDS011;64985;46.364;17.008;2024-03-02T03:05:09;98.35;;;41.58;;
76202;SDS011;64985;46.364;17.008;2024-03-02T03:08:12;95.93;;;40.10;;
76202;SDS011;64985;46.364;17.008;2024-03-02T03:11:14;99.43;;;41.03;;
76202;SDS011;64985;46.364;17.008;2024-03-02T03:14:17;98.85;;;40.00;;
76202;SDS011;64985;46.364;17.008;2024-03-02T03:17:19;101.72;;;40.80;;
76202;SDS011;64985;46.364;17.008;2024-03-02T03:20:22;96.35;;;38.85;;
76202;SDS011;64985;46.364;17.008;2024-03-02T03:23:25;96.75;;;38.83;;
76202;SDS011;64985;46.364;17.008;2024-03-02T03:26:27;100.40;;;40.08;;
76202;SDS011;64985;46.364;17.008;2024-03-02T03:29:30;89.72;;;38.75;;
76202;SDS011;64985;46.364;17.008;2024-03-02T03:32:32;80.47;;;35.67;;
76202;SDS011;64985;46.364;17.008;2024-03-02T03:35:36;85.68;;;37.80;;
76202;SDS011;64985;46.364;17.008;2024-03-02T03:38:38;75.40;;;33.47;;
76202;SDS011;64985;46.364;17.008;2024-03-02T03:41:40;67.82;;;30.95;;
76202;SDS011;64985;46.364;17.008;2024-03-02T03:44:43;69.85;;;32.28;;
76202;SDS011;64985;46.364;17.008;2024-03-02T03:47:45;68.95;;;31.25;;
76202;SDS011;64985;46.364;17.008;2024-03-02T03:50:47;65.25;;;29.92;;
76202;SDS011;64985;46.364;17.008;2024-03-02T03:53:50;69.43;;;30.98;;
76202;SDS011;64985;46.364;17.008;2024-03-02T03:56:52;73.32;;;33.15;;
76202;SDS011;64985;46.364;17.008;2024-03-02T03:59:54;85.05;;;37.53;;
76202;SDS011;64985;46.364;17.008;2024-03-02T04:02:56;102.72;;;40.55;;
76202;SDS011;64985;46.364;17.008;2024-03-02T04:05:58;89.15;;;39.13;;
76202;SDS011;64985;46.364;17.008;2024-03-02T04:09:01;112.45;;;42.03;;
76202;SDS011;64985;46.364;17.008;2024-03-02T04:12:03;89.60;;;38.45;;
76202;SDS011;64985;46.364;17.008;2024-03-02T04:15:06;88.13;;;38.67;;
76202;SDS011;64985;46.364;17.008;2024-03-02T04:18:08;93.35;;;39.75;;
76202;SDS011;64985;46.364;17.008;2024-03-02T04:21:11;109.88;;;44.22;;
76202;SDS011;64985;46.364;17.008;2024-03-02T04:24:13;114.30;;;45.05;;
76202;SDS011;64985;46.364;17.008;2024-03-02T04:27:16;118.28;;;43.63;;
76202;SDS011;64985;46.364;17.008;2024-03-02T04:30:18;121.60;;;44.85;;
76202;SDS011;64985;46.364;17.008;2024-03-02T04:33:20;126.32;;;46.88;;
76202;SDS011;64985;46.364;17.008;2024-03-02T04:36:23;134.45;;;50.03;;
76202;SDS011;64985;46.364;17.008;2024-03-02T04:39:25;132.13;;;49.42;;
76202;SDS011;64985;46.364;17.008;2024-03-02T04:42:28;127.40;;;48.67;;
76202;SDS011;64985;46.364;17.008;2024-03-02T04:45:30;133.07;;;46.63;;
76202;SDS011;64985;46.364;17.008;2024-03-02T04:48:33;141.95;;;49.70;;
76202;SDS011;64985;46.364;17.008;2024-03-02T04:51:35;149.23;;;49.38;;
76202;SDS011;64985;46.364;17.008;2024-03-02T04:54:38;153.93;;;50.47;;
76202;SDS011;64985;46.364;17.008;2024-03-02T04:58:00;163.32;;;53.25;;
76202;SDS011;64985;46.364;17.008;2024-03-02T05:01:02;154.90;;;51.58;;
76202;SDS011;64985;46.364;17.008;2024-03-02T05:04:05;152.60;;;50.25;;
76202;SDS011;64985;46.364;17.008;2024-03-02T05:07:07;147.75;;;48.72;;
76202;SDS011;64985;46.364;17.008;2024-03-02T05:10:09;144.30;;;49.78;;
76202;SDS011;64985;46.364;17.008;2024-03-02T05:13:13;149.45;;;49.83;;
76202;SDS011;64985;46.364;17.008;2024-03-02T05:16:15;140.88;;;47.55;;
76202;SDS011;64985;46.364;17.008;2024-03-02T05:19:17;147.95;;;49.65;;
76202;SDS011;64985;46.364;17.008;2024-03-02T05:22:20;142.10;;;49.17;;
76202;SDS011;64985;46.364;17.008;2024-03-02T05:25:22;139.45;;;46.22;;
76202;SDS011;64985;46.364;17.008;2024-03-02T05:28:24;140.05;;;46.47;;
76202;SDS011;64985;46.364;17.008;2024-03-02T05:31:26;144.90;;;47.85;;
76202;SDS011;64985;46.364;17.008;2024-03-02T05:34:29;149.20;;;50.28;;
76202;SDS011;64985;46.364;17.008;2024-03-02T05:37:32;143.25;;;50.00;;
76202;SDS011;64985;46.364;17.008;2024-03-02T05:40:34;131.57;;;46.83;;
76202;SDS011;64985;46.364;17.008;2024-03-02T05:43:37;128.02;;;44.85;;
76202;SDS011;64985;46.364;17.008;2024-03-02T05:46:39;130.27;;;45.50;;
76202;SDS011;64985;46.364;17.008;2024-03-02T05:49:42;114.28;;;43.78;;
76202;SDS011;64985;46.364;17.008;2024-03-02T05:52:44;129.73;;;45.50;;
76202;SDS011;64985;46.364;17.008;2024-03-02T05:55:47;130.48;;;45.28;;
76202;SDS011;64985;46.364;17.008;2024-03-02T05:58:54;129.52;;;46.03;;
76202;SDS011;64985;46.364;17.008;2024-03-02T06:02:15;131.75;;;45.53;;
76202;SDS011;64985;46.364;17.008;2024-03-02T06:05:18;127.38;;;45.47;;
76202;SDS011;64985;46.364;17.008;2024-03-02T06:08:20;132.82;;;47.78;;
76202;SDS011;64985;46.364;17.008;2024-03-02T06:11:23;135.52;;;43.80;;
76202;SDS011;64985;46.364;17.008;2024-03-02T06:14:25;136.73;;;45.05;;
76202;SDS011;64985;46.364;17.008;2024-03-02T06:17:27;139.85;;;46.33;;
76202;SDS011;64985;46.364;17.008;2024-03-02T06:20:30;124.78;;;44.83;;
76202;SDS011;64985;46.364;17.008;2024-03-02T06:23:37;125.35;;;48.05;;
76202;SDS011;64985;46.364;17.008;2024-03-02T06:26:40;137.60;;;44.47;;
76202;SDS011;64985;46.364;17.008;2024-03-02T06:29:42;125.95;;;46.45;;
76202;SDS011;64985;46.364;17.008;2024-03-02T06:32:44;126.22;;;45.30;;
76202;SDS011;64985;46.364;17.008;2024-03-02T06:35:47;122.90;;;45.85;;
76202;SDS011;64985;46.364;17.008;2024-03-02T06:38:50;123.93;;;45.20;;
76202;SDS011;64985;46.364;17.008;2024-03-02T06:41:53;126.88;;;45.63;;
76202;SDS011;64985;46.364;17.008;2024-03-02T06:44:55;127.05;;;44.20;;
76202;SDS011;64985;46.364;17.008;2024-03-02T06:47:57;146.60;;;45.60;;
76202;SDS011;64985;46.364;17.008;2024-03-02T06:51:00;130.27;;;45.05;;
76202;SDS011;64985;46.364;17.008;2024-03-02T06:54:02;140.73;;;45.72;;
76202;SDS011;64985;46.364;17.008;2024-03-02T06:57:05;195.20;;;47.30;;
76202;SDS011;64985;46.364;17.008;2024-03-02T07:00:07;211.77;;;45.78;;
76202;SDS011;64985;46.364;17.008;2024-03-02T07:03:10;191.05;;;46.92;;
76202;SDS011;64985;46.364;17.008;2024-03-02T07:06:14;154.07;;;45.83;;
76202;SDS011;64985;46.364;17.008;2024-03-02T07:09:17;163.50;;;45.75;;
76202;SDS011;64985;46.364;17.008;2024-03-02T07:12:19;140.20;;;48.03;;
76202;SDS011;64985;46.364;17.008;2024-03-02T07:15:21;128.38;;;47.22;;
76202;SDS011;64985;46.364;17.008;2024-03-02T07:21:35;133.77;;;46.83;;
76202;SDS011;64985;46.364;17.008;2024-03-02T07:24:43;135.00;;;48.97;;
76202;SDS011;64985;46.364;17.008;2024-03-02T07:27:47;133.75;;;47.42;;
76202;SDS011;64985;46.364;17.008;2024-03-02T07:34:02;128.32;;;48.28;;
76202;SDS011;64985;46.364;17.008;2024-03-02T07:37:04;128.77;;;47.00;;
76202;SDS011;64985;46.364;17.008;2024-03-02T07:40:08;119.70;;;46.05;;
76202;SDS011;64985;46.364;17.008;2024-03-02T07:43:13;119.95;;;45.53;;
76202;SDS011;64985;46.364;17.008;2024-03-02T07:46:16;120.53;;;45.92;;
76202;SDS011;64985;46.364;17.008;2024-03-02T07:49:19;116.43;;;45.15;;
76202;SDS011;64985;46.364;17.008;2024-03-02T07:52:21;109.32;;;44.45;;
76202;SDS011;64985;46.364;17.008;2024-03-02T07:55:23;115.47;;;45.10;;
76202;SDS011;64985;46.364;17.008;2024-03-02T07:58:26;113.80;;;45.35;;
76202;SDS011;64985;46.364;17.008;2024-03-02T08:01:29;105.22;;;41.78;;
76202;SDS011;64985;46.364;17.008;2024-03-02T08:04:33;97.30;;;40.35;;
76202;SDS011;64985;46.364;17.008;2024-03-02T08:07:35;94.07;;;39.85;;
76202;SDS011;64985;46.364;17.008;2024-03-02T08:10:37;89.65;;;39.58;;
76202;SDS011;64985;46.364;17.008;2024-03-02T08:13:39;93.65;;;39.30;;
76202;SDS011;64985;46.364;17.008;2024-03-02T08:16:41;91.13;;;38.97;;
76202;SDS011;64985;46.364;17.008;2024-03-02T08:19:43;88.90;;;38.78;;
76202;SDS011;64985;46.364;17.008;2024-03-02T08:22:46;94.25;;;39.53;;
76202;SDS011;64985;46.364;17.008;2024-03-02T08:25:49;92.00;;;40.47;;
76202;SDS011;64985;46.364;17.008;2024-03-02T08:28:51;92.03;;;40.17;;
76202;SDS011;64985;46.364;17.008;2024-03-02T08:31:54;86.32;;;39.05;;
76202;SDS011;64985;46.364;17.008;2024-03-02T08:34:56;87.18;;;37.88;;
76202;SDS011;64985;46.364;17.008;2024-03-02T08:37:58;78.45;;;36.35;;
76202;SDS011;64985;46.364;17.008;2024-03-02T08:41:02;83.30;;;36.00;;
76202;SDS011;64985;46.364;17.008;2024-03-02T08:44:05;84.10;;;37.83;;
76202;SDS011;64985;46.364;17.008;2024-03-02T08:47:08;83.15;;;37.95;;
76202;SDS011;64985;46.364;17.008;2024-03-02T08:50:11;79.03;;;36.28;;
76202;SDS011;64985;46.364;17.008;2024-03-02T08:53:13;81.00;;;36.10;;
76202;SDS011;64985;46.364;17.008;2024-03-02T08:56:19;76.88;;;34.88;;
76202;SDS011;64985;46.364;17.008;2024-03-02T08:59:23;81.78;;;35.55;;
76202;SDS011;64985;46.364;17.008;2024-03-02T09:02:26;77.10;;;35.60;;
76202;SDS011;64985;46.364;17.008;2024-03-02T09:05:29;74.68;;;33.92;;
76202;SDS011;64985;46.364;17.008;2024-03-02T09:08:31;81.70;;;37.25;;
76202;SDS011;64985;46.364;17.008;2024-03-02T09:11:34;82.57;;;37.75;;
76202;SDS011;64985;46.364;17.008;2024-03-02T09:14:36;72.90;;;34.58;;
76202;SDS011;64985;46.364;17.008;2024-03-02T09:17:39;74.43;;;34.67;;
76202;SDS011;64985;46.364;17.008;2024-03-02T09:20:42;75.90;;;35.38;;
76202;SDS011;64985;46.364;17.008;2024-03-02T09:23:44;71.10;;;34.80;;
76202;SDS011;64985;46.364;17.008;2024-03-02T09:26:47;71.68;;;33.40;;
76202;SDS011;64985;46.364;17.008;2024-03-02T09:29:49;70.28;;;32.80;;
76202;SDS011;64985;46.364;17.008;2024-03-02T09:32:51;63.08;;;31.98;;
76202;SDS011;64985;46.364;17.008;2024-03-02T09:36:19;67.43;;;31.40;;
76202;SDS011;64985;46.364;17.008;2024-03-02T09:39:23;69.10;;;34.00;;
76202;SDS011;64985;46.364;17.008;2024-03-02T09:42:27;82.30;;;35.72;;
76202;SDS011;64985;46.364;17.008;2024-03-02T09:45:30;75.78;;;34.92;;
76202;SDS011;64985;46.364;17.008;2024-03-02T09:48:32;70.82;;;32.88;;
76202;SDS011;64985;46.364;17.008;2024-03-02T09:51:35;70.93;;;33.40;;
76202;SDS011;64985;46.364;17.008;2024-03-02T09:54:38;69.80;;;32.15;;
76202;SDS011;64985;46.364;17.008;2024-03-02T09:57:41;72.82;;;34.47;;
76202;SDS011;64985;46.364;17.008;2024-03-02T10:00:46;66.95;;;31.48;;
76202;SDS011;64985;46.364;17.008;2024-03-02T10:03:48;71.00;;;32.45;;
76202;SDS011;64985;46.364;17.008;2024-03-02T10:07:09;73.35;;;32.95;;
76202;SDS011;64985;46.364;17.008;2024-03-02T10:10:19;73.25;;;34.00;;
76202;SDS011;64985;46.364;17.008;2024-03-02T10:13:21;68.68;;;33.03;;
76202;SDS011;64985;46.364;17.008;2024-03-02T10:16:27;66.25;;;32.10;;
76202;SDS011;64985;46.364;17.008;2024-03-02T10:19:29;67.13;;;32.38;;
76202;SDS011;64985;46.364;17.008;2024-03-02T10:22:35;63.20;;;31.98;;
76202;SDS011;64985;46.364;17.008;2024-03-02T10:25:37;68.43;;;32.40;;
76202;SDS011;64985;46.364;17.008;2024-03-02T10:28:51;63.95;;;30.80;;
76202;SDS011;64985;46.364;17.008;2024-03-02T10:32:01;64.82;;;31.92;;
76202;SDS011;64985;46.364;17.008;2024-03-02T10:35:04;61.70;;;30.48;;
76202;SDS011;64985;46.364;17.008;2024-03-02T10:38:08;59.30;;;29.05;;
76202;SDS011;64985;46.364;17.008;2024-03-02T10:41:17;58.15;;;27.73;;
76202;SDS011;64985;46.364;17.008;2024-03-02T10:44:20;56.38;;;28.38;;
76202;SDS011;64985;46.364;17.008;2024-03-02T10:47:24;53.65;;;27.33;;
76202;SDS011;64985;46.364;17.008;2024-03-02T10:50:28;55.20;;;28.30;;
76202;SDS011;64985;46.364;17.008;2024-03-02T10:53:31;53.85;;;26.55;;
76202;SDS011;64985;46.364;17.008;2024-03-02T10:56:34;51.20;;;27.25;;
76202;SDS011;64985;46.364;17.008;2024-03-02T10:59:46;54.97;;;29.00;;
76202;SDS011;64985;46.364;17.008;2024-03-02T11:03:02;54.72;;;29.42;;
76202;SDS011;64985;46.364;17.008;2024-03-02T11:06:13;51.92;;;28.17;;
76202;SDS011;64985;46.364;17.008;2024-03-02T11:09:16;76.47;;;37.80;;
76202;SDS011;64985;46.364;17.008;2024-03-02T11:12:31;76.45;;;38.33;;
76202;SDS011;64985;46.364;17.008;2024-03-02T11:15:40;63.85;;;33.72;;
76202;SDS011;64985;46.364;17.008;2024-03-02T11:18:46;70.18;;;35.95;;
76202;SDS011;64985;46.364;17.008;2024-03-02T11:21:51;63.65;;;33.17;;
76202;SDS011;64985;46.364;17.008;2024-03-02T11:24:54;58.70;;;30.27;;
76202;SDS011;64985;46.364;17.008;2024-03-02T11:28:00;59.45;;;30.15;;
76202;SDS011;64985;46.364;17.008;2024-03-02T11:31:06;47.50;;;24.10;;
76202;SDS011;64985;46.364;17.008;2024-03-02T11:34:23;56.53;;;28.67;;
76202;SDS011;64985;46.364;17.008;2024-03-02T11:37:33;50.63;;;27.25;;
76202;SDS011;64985;46.364;17.008;2024-03-02T11:40:36;52.80;;;28.35;;
76202;SDS011;64985;46.364;17.008;2024-03-02T11:43:41;49.70;;;26.63;;
76202;SDS011;64985;46.364;17.008;2024-03-02T11:46:46;54.88;;;28.35;;
76202;SDS011;64985;46.364;17.008;2024-03-02T11:49:55;52.80;;;27.33;;
76202;SDS011;64985;46.364;17.008;2024-03-02T11:52:57;44.58;;;25.48;;
76202;SDS011;64985;46.364;17.008;2024-03-02T11:56:00;47.67;;;26.38;;
76202;SDS011;64985;46.364;17.008;2024-03-02T11:59:03;49.40;;;26.40;;
76202;SDS011;64985;46.364;17.008;2024-03-02T12:02:06;57.20;;;27.52;;
76202;SDS011;64985;46.364;17.008;2024-03-02T12:05:14;53.13;;;28.63;;
76202;SDS011;64985;46.364;17.008;2024-03-02T12:08:18;51.10;;;26.95;;
76202;SDS011;64985;46.364;17.008;2024-03-02T12:11:20;47.75;;;26.63;;
76202;SDS011;64985;46.364;17.008;2024-03-02T12:14:23;47.72;;;25.77;;
76202;SDS011;64985;46.364;17.008;2024-03-02T12:17:25;47.67;;;25.35;;
76202;SDS011;64985;46.364;17.008;2024-03-02T12:20:28;47.35;;;25.60;;
76202;SDS011;64985;46.364;17.008;2024-03-02T12:23:31;45.65;;;25.75;;
76202;SDS011;64985;46.364;17.008;2024-03-02T12:26:33;44.33;;;23.80;;
76202;SDS011;64985;46.364;17.008;2024-03-02T12:29:36;51.25;;;27.88;;
76202;SDS011;64985;46.364;17.008;2024-03-02T12:32:38;45.40;;;26.65;;
76202;SDS011;64985;46.364;17.008;2024-03-02T12:35:41;53.85;;;28.88;;
76202;SDS011;64985;46.364;17.008;2024-03-02T12:38:44;54.03;;;28.63;;
76202;SDS011;64985;46.364;17.008;2024-03-02T12:41:46;46.22;;;26.08;;
76202;SDS011;64985;46.364;17.008;2024-03-02T12:44:49;41.78;;;24.40;;
76202;SDS011;64985;46.364;17.008;2024-03-02T12:47:53;47.65;;;24.60;;
76202;SDS011;64985;46.364;17.008;2024-03-02T12:50:55;51.88;;;25.40;;
76202;SDS011;64985;46.364;17.008;2024-03-02T12:53:57;45.55;;;25.33;;
76202;SDS011;64985;46.364;17.008;2024-03-02T12:57:00;44.63;;;23.45;;
76202;SDS011;64985;46.364;17.008;2024-03-02T13:00:04;43.78;;;23.38;;
76202;SDS011;64985;46.364;17.008;2024-03-02T13:03:11;41.13;;;23.80;;
76202;SDS011;64985;46.364;17.008;2024-03-02T13:06:16;40.30;;;22.35;;
76202;SDS011;64985;46.364;17.008;2024-03-02T13:09:19;39.60;;;22.65;;
76202;SDS011;64985;46.364;17.008;2024-03-02T13:12:22;39.75;;;23.48;;
76202;SDS011;64985;46.364;17.008;2024-03-02T13:15:27;50.60;;;26.90;;
76202;SDS011;64985;46.364;17.008;2024-03-02T13:18:29;47.83;;;27.10;;
76202;SDS011;64985;46.364;17.008;2024-03-02T13:21:33;44.65;;;24.85;;
76202;SDS011;64985;46.364;17.008;2024-03-02T13:24:35;53.60;;;27.17;;
76202;SDS011;64985;46.364;17.008;2024-03-02T13:27:38;47.90;;;26.33;;
76202;SDS011;64985;46.364;17.008;2024-03-02T13:30:41;46.60;;;24.70;;
76202;SDS011;64985;46.364;17.008;2024-03-02T13:33:43;49.80;;;26.95;;
76202;SDS011;64985;46.364;17.008;2024-03-02T13:36:45;49.00;;;25.75;;
76202;SDS011;64985;46.364;17.008;2024-03-02T13:39:47;46.58;;;25.13;;
76202;SDS011;64985;46.364;17.008;2024-03-02T13:42:50;43.72;;;24.33;;
76202;SDS011;64985;46.364;17.008;2024-03-02T13:45:53;38.47;;;21.15;;
76202;SDS011;64985;46.364;17.008;2024-03-02T13:48:55;38.35;;;21.73;;
76202;SDS011;64985;46.364;17.008;2024-03-02T13:52:07;38.92;;;22.25;;
76202;SDS011;64985;46.364;17.008;2024-03-02T13:55:15;41.33;;;21.48;;
76202;SDS011;64985;46.364;17.008;2024-03-02T13:58:18;39.75;;;21.75;;
76202;SDS011;64985;46.364;17.008;2024-03-02T14:01:22;38.28;;;21.40;;
76202;SDS011;64985;46.364;17.008;2024-03-02T14:04:24;48.22;;;26.40;;
76202;SDS011;64985;46.364;17.008;2024-03-02T14:07:26;44.95;;;25.23;;
76202;SDS011;64985;46.364;17.008;2024-03-02T14:10:28;37.85;;;20.85;;
76202;SDS011;64985;46.364;17.008;2024-03-02T14:13:31;40.00;;;20.65;;
76202;SDS011;64985;46.364;17.008;2024-03-02T14:16:33;29.90;;;17.80;;
76202;SDS011;64985;46.364;17.008;2024-03-02T14:19:36;30.98;;;17.27;;
76202;SDS011;64985;46.364;17.008;2024-03-02T14:22:38;29.20;;;16.73;;
76202;SDS011;64985;46.364;17.008;2024-03-02T14:25:40;31.08;;;17.63;;
76202;SDS011;64985;46.364;17.008;2024-03-02T14:28:42;29.90;;;17.70;;
76202;SDS011;64985;46.364;17.008;2024-03-02T14:31:52;34.38;;;19.02;;
76202;SDS011;64985;46.364;17.008;2024-03-02T14:34:54;33.08;;;17.85;;
76202;SDS011;64985;46.364;17.008;2024-03-02T14:37:57;31.60;;;18.83;;
76202;SDS011;64985;46.364;17.008;2024-03-02T14:40:59;29.42;;;16.83;;
76202;SDS011;64985;46.364;17.008;2024-03-02T14:44:01;32.30;;;18.45;;
76202;SDS011;64985;46.364;17.008;2024-03-02T14:47:03;33.38;;;18.52;;
76202;SDS011;64985;46.364;17.008;2024-03-02T14:50:06;39.50;;;21.90;;
76202;SDS011;64985;46.364;17.008;2024-03-02T14:53:08;26.92;;;15.23;;
76202;SDS011;64985;46.364;17.008;2024-03-02T14:56:11;28.88;;;15.57;;
76202;SDS011;64985;46.364;17.008;2024-03-02T14:59:14;18.33;;;11.27;;
76202;SDS011;64985;46.364;17.008;2024-03-02T15:02:16;20.67;;;12.45;;
76202;SDS011;64985;46.364;17.008;2024-03-02T15:05:19;23.80;;;14.48;;
76202;SDS011;64985;46.364;17.008;2024-03-02T15:08:21;23.45;;;13.18;;
76202;SDS011;64985;46.364;17.008;2024-03-02T15:11:23;21.08;;;12.82;;
76202;SDS011;64985;46.364;17.008;2024-03-02T15:14:27;23.05;;;13.68;;
76202;SDS011;64985;46.364;17.008;2024-03-02T15:17:29;20.08;;;12.20;;
76202;SDS011;64985;46.364;17.008;2024-03-02T15:20:32;22.17;;;12.77;;
76202;SDS011;64985;46.364;17.008;2024-03-02T15:23:34;25.10;;;14.13;;
76202;SDS011;64985;46.364;17.008;2024-03-02T15:26:36;24.75;;;13.68;;
76202;SDS011;64985;46.364;17.008;2024-03-02T15:29:38;26.75;;;13.63;;
76202;SDS011;64985;46.364;17.008;2024-03-02T15:32:41;22.05;;;13.18;;
76202;SDS011;64985;46.364;17.008;2024-03-02T15:35:43;23.55;;;13.50;;
76202;SDS011;64985;46.364;17.008;2024-03-02T15:38:45;18.40;;;11.65;;
76202;SDS011;64985;46.364;17.008;2024-03-02T15:41:48;25.83;;;12.85;;
76202;SDS011;64985;46.364;17.008;2024-03-02T15:44:50;24.63;;;11.98;;
76202;SDS011;64985;46.364;17.008;2024-03-02T15:47:55;20.58;;;12.35;;
76202;SDS011;64985;46.364;17.008;2024-03-02T15:50:57;18.27;;;10.45;;
76202;SDS011;64985;46.364;17.008;2024-03-02T15:54:02;20.60;;;10.60;;
76202;SDS011;64985;46.364;17.008;2024-03-02T15:57:06;20.35;;;12.02;;
76202;SDS011;64985;46.364;17.008;2024-03-02T16:00:08;21.15;;;12.10;;
76202;SDS011;64985;46.364;17.008;2024-03-02T16:03:11;20.30;;;11.48;;
76202;SDS011;64985;46.364;17.008;2024-03-02T16:06:14;19.70;;;11.35;;
76202;SDS011;64985;46.364;17.008;2024-03-02T16:09:16;20.50;;;12.40;;
76202;SDS011;64985;46.364;17.008;2024-03-02T16:12:18;22.15;;;12.48;;
76202;SDS011;64985;46.364;17.008;2024-03-02T16:15:20;23.10;;;12.55;;
76202;SDS011;64985;46.364;17.008;2024-03-02T16:18:23;24.08;;;11.73;;
76202;SDS011;64985;46.364;17.008;2024-03-02T16:21:25;24.15;;;11.93;;
76202;SDS011;64985;46.364;17.008;2024-03-02T16:24:28;24.23;;;11.90;;
76202;SDS011;64985;46.364;17.008;2024-03-02T16:27:31;23.77;;;11.68;;
76202;SDS011;64985;46.364;17.008;2024-03-02T16:30:33;19.63;;;11.82;;
76202;SDS011;64985;46.364;17.008;2024-03-02T16:33:36;18.75;;;10.48;;
76202;SDS011;64985;46.364;17.008;2024-03-02T16:36:38;20.75;;;10.93;;
76202;SDS011;64985;46.364;17.008;2024-03-02T16:39:42;18.63;;;10.73;;
76202;SDS011;64985;46.364;17.008;2024-03-02T16:42:44;16.88;;;10.23;;
76202;SDS011;64985;46.364;17.008;2024-03-02T16:45:47;22.48;;;10.73;;
76202;SDS011;64985;46.364;17.008;2024-03-02T16:48:49;21.48;;;11.25;;
76202;SDS011;64985;46.364;17.008;2024-03-02T16:51:51;20.00;;;10.57;;
76202;SDS011;64985;46.364;17.008;2024-03-02T16:54:53;22.92;;;10.52;;
76202;SDS011;64985;46.364;17.008;2024-03-02T16:57:56;20.95;;;10.32;;
76202;SDS011;64985;46.364;17.008;2024-03-02T17:00:58;18.05;;;9.88;;
76202;SDS011;64985;46.364;17.008;2024-03-02T17:04:00;17.90;;;10.25;;
76202;SDS011;64985;46.364;17.008;2024-03-02T17:07:03;19.85;;;10.35;;
76202;SDS011;64985;46.364;17.008;2024-03-02T17:10:06;20.40;;;9.80;;
76202;SDS011;64985;46.364;17.008;2024-03-02T17:13:09;22.80;;;9.60;;
76202;SDS011;64985;46.364;17.008;2024-03-02T17:16:11;18.05;;;8.57;;
76202;SDS011;64985;46.364;17.008;2024-03-02T17:19:16;19.77;;;10.60;;
76202;SDS011;64985;46.364;17.008;2024-03-02T17:22:18;18.08;;;9.82;;
76202;SDS011;64985;46.364;17.008;2024-03-02T17:25:20;17.20;;;8.90;;
76202;SDS011;64985;46.364;17.008;2024-03-02T17:28:24;18.05;;;8.98;;
76202;SDS011;64985;46.364;17.008;2024-03-02T17:31:31;15.18;;;8.70;;
76202;SDS011;64985;46.364;17.008;2024-03-02T17:34:33;17.48;;;8.55;;
76202;SDS011;64985;46.364;17.008;2024-03-02T17:37:36;13.90;;;7.43;;
76202;SDS011;64985;46.364;17.008;2024-03-02T17:40:40;16.20;;;7.40;;